Terminal Aerodrome Forecast
Issued by NWS

Home | Current Version | Previous Version | Text Only | Print | Product List | Glossary On
Versions: 1 2 3 4 5 6 7 8 9 10 11 12 13 14 15 16 17 18
000
FTUS46 KSEW 021100
TAFOLM
TAF
KOLM 021132Z 0212/0312 00000KT P6SM FEW060
      TEMPO 0213/0217 1SM BR SCT002 BKN050
     FM021800 VRB03KT P6SM SCT080 SCT150
     FM030900 00000KT 2SM BR SCT002 SCT050=

USA.gov is the U.S. government's official web portal to all federal, state and local government web resources and services.